SPTN/TCQ METAR and TAF weather

Enter ICAO airport designator
Station Type Date Time Source
SPTN METAR 2019/10/23 03:00 UTC NOAA

SPTN 230300Z 21005KT 8000 OVC019 14/12 Q1019 RMK PP000


Station Type Date Time Source
SPTN Decoded METAR 2019/10/23 03:00 UTC NOAA

Tacna, Peru (SPTN) 18-04S 070-18W 469M
Oct 22, 2019 - 11:00 PM EDT / 2019.10.23 0300 UTC
Wind: from the SSW (210 degrees) at 6 MPH (5 KT):0
Visibility: 4 mile(s):0
Sky conditions: overcast
Temperature: 57 F (14 C)
Dew Point: 53 F (12 C)
Relative Humidity: 87%
Pressure (altimeter): 30.09 in. Hg (1019 hPa)
ob: SPTN 230300Z 21005KT 8000 OVC019 14/12 Q1019 RMK PP000
cycle: 3

Station Type Date Time Source
SPTN TAF 2019/10/22 18:33 UTC NOAA

TAF SPTN 221700Z 2218/2318 23010KT 9999 SCT030 TX22/2219Z TN13/2311Z
FM222300 26005KT 9999 SCT015 BKN025
FM231500 VRB05KT 9999 SCT040

Example: see airport list